createdAt,value
2022-08-11T00:01:14.982Z,98586.44
2022-08-11T00:05:22.917Z,98585.22
2022-08-11T00:09:39.478Z,98590.03
2022-08-11T00:13:45.459Z,98583.47
2022-08-11T00:17:48.159Z,98579.09
2022-08-11T00:22:03.887Z,98576.72
2022-08-11T00:26:08.947Z,98581.97
2022-08-11T00:30:13.098Z,98592.66
2022-08-11T00:34:18.495Z,98589.09
2022-08-11T00:38:26.055Z,98599.31
2022-08-11T00:43:01.852Z,98590.03
2022-08-11T00:47:31.893Z,98584.34
2022-08-11T00:52:04.312Z,98586.69
2022-08-11T00:56:10.997Z,98582.84
2022-08-11T01:00:19.550Z,98584.44
2022-08-11T01:04:46.524Z,98584.81
2022-08-11T01:09:22.328Z,98583.94
2022-08-11T01:13:52.934Z,98589.88
2022-08-11T01:18:28.704Z,98589.03
2022-08-11T01:23:02.433Z,98584.78
2022-08-11T01:27:40.025Z,98602.19
2022-08-11T01:32:11.006Z,98588.22
2022-08-11T01:36:37.953Z,98604.59
2022-08-11T01:40:55.634Z,98605.78
2022-08-11T01:45:07.870Z,98598.56
2022-08-11T01:50:06.780Z,98602.84
2022-08-11T01:54:05.540Z,98599.81
2022-08-11T01:58:34.327Z,98609.47
2022-08-11T02:03:08.612Z,98612.09
2022-08-11T02:07:19.154Z,98616.63
2022-08-11T02:11:31.021Z,98608.53
2022-08-11T02:15:47.024Z,98613.13
2022-08-11T02:20:24.962Z,98608.31
2022-08-11T02:24:34.620Z,98604.56
2022-08-11T02:29:15.589Z,98610.81
2022-08-11T02:33:24.678Z,98616.66
2022-08-11T02:37:32.912Z,98614.88
2022-08-11T02:42:32.483Z,98610.81
2022-08-11T02:46:56.939Z,98614.16
2022-08-11T02:51:21.341Z,98607.88
2022-08-11T02:55:56.147Z,98612.09
2022-08-11T03:00:07.437Z,98602.56
2022-08-11T03:04:21.192Z,98606.84
2022-08-11T03:08:53.207Z,98607.78
2022-08-11T03:13:29.774Z,98605.66
2022-08-11T03:17:42.956Z,98602.59
2022-08-11T03:22:02.525Z,98599.66
2022-08-11T03:26:19.484Z,98600.59
2022-08-11T03:30:32.535Z,98599.53
2022-08-11T03:34:39.786Z,98598.03
2022-08-11T03:39:08.017Z,98602.59
2022-08-11T03:43:31.806Z,98605.94
2022-08-11T03:47:54.995Z,98597.97
2022-08-11T03:52:13.148Z,98596.03
2022-08-11T03:56:33.945Z,98600.16
2022-08-11T04:01:07.771Z,98599.50
2022-08-11T04:05:31.766Z,98610.84
2022-08-11T04:09:55.448Z,98608.81
2022-08-11T04:14:55.924Z,98609.41
2022-08-11T04:19:28.734Z,98615.88
2022-08-11T04:24:13.219Z,98613.63
2022-08-11T04:28:43.042Z,98608.06
2022-08-11T04:33:11.375Z,98601.66
2022-08-11T04:37:43.388Z,98607.41
2022-08-11T04:42:41.888Z,98611.41
2022-08-11T04:47:02.539Z,98613.56
2022-08-11T04:51:51.119Z,98626.53
2022-08-11T04:56:17.715Z,98611.03
2022-08-11T05:00:38.610Z,98608.25
2022-08-11T05:05:56.804Z,98602.88
2022-08-11T05:10:17.261Z,98607.97
2022-08-11T05:14:53.457Z,98617.78
2022-08-11T05:19:16.436Z,98613.31
2022-08-11T05:23:42.853Z,98622.16
2022-08-11T05:28:14.022Z,98626.44
2022-08-11T05:32:36.533Z,98629.03
2022-08-11T05:37:25.116Z,98626.56
2022-08-11T05:41:49.728Z,98633.91
2022-08-11T05:46:19.789Z,98634.84
2022-08-11T05:50:42.620Z,98629.50
2022-08-11T05:55:09.951Z,98622.13
2022-08-11T05:59:18.550Z,98626.94
2022-08-11T06:03:27.952Z,98632.13
2022-08-11T06:07:48.964Z,98622.22
2022-08-11T06:11:52.859Z,98617.94
2022-08-11T06:15:56.016Z,98614.88
2022-08-11T06:20:06.999Z,98614.75
2022-08-11T06:24:14.677Z,98621.91
2022-08-11T06:28:22.576Z,98622.44
2022-08-11T06:32:36.490Z,98604.41
2022-08-11T06:36:51.424Z,98612.53
2022-08-11T06:41:15.222Z,98610.78
2022-08-11T06:45:35.179Z,98614.66
2022-08-11T06:50:01.852Z,98600.91
2022-08-11T06:54:05.796Z,98609.34
2022-08-11T06:58:39.076Z,98605.31
2022-08-11T07:03:00.898Z,98603.41
2022-08-11T07:07:30.725Z,98603.91
2022-08-11T07:12:21.113Z,98604.75
2022-08-11T07:16:28.617Z,98610.41
2022-08-11T07:20:50.021Z,98612.59
2022-08-11T07:25:19.802Z,98605.75
2022-08-11T07:29:22.997Z,98601.22
2022-08-11T07:34:05.383Z,98603.50
2022-08-11T07:38:11.673Z,98601.34
2022-08-11T07:42:16.669Z,98598.66
2022-08-11T07:46:41.474Z,98595.53
2022-08-11T07:51:03.584Z,98600.03
2022-08-11T07:55:10.371Z,98587.06
2022-08-11T07:59:59.856Z,98581.44
2022-08-11T08:04:12.390Z,98584.97
2022-08-11T08:08:34.403Z,98588.81
2022-08-11T08:12:55.495Z,98594.88
2022-08-11T08:17:17.090Z,98593.47
2022-08-11T08:21:19.747Z,98589.50
2022-08-11T08:25:27.216Z,98591.63
2022-08-11T08:29:52.926Z,98582.19
2022-08-11T08:33:55.160Z,98594.03
2022-08-11T08:37:59.702Z,98594.47
2022-08-11T08:42:07.273Z,98588.25
2022-08-11T08:46:11.547Z,98597.69
2022-08-11T08:50:19.559Z,98590.50
2022-08-11T08:54:29.449Z,98587.94
2022-08-11T08:58:35.026Z,98595.13
2022-08-11T09:02:37.812Z,98586.22
2022-08-11T09:06:42.926Z,98587.38
2022-08-11T09:11:13.634Z,98583.72
2022-08-11T09:15:19.378Z,98581.09
2022-08-11T09:19:23.864Z,98595.41
2022-08-11T09:28:12.788Z,98573.13
2022-08-11T09:32:19.203Z,98571.09
2022-08-11T09:36:40.594Z,98567.66
2022-08-11T09:40:45.218Z,98564.44
2022-08-11T09:44:55.025Z,98561.19
2022-08-11T09:49:02.186Z,98559.66
2022-08-11T09:53:37.223Z,98565.59
2022-08-11T09:57:47.938Z,98552.41
2022-08-11T10:01:57.120Z,98555.22
2022-08-11T10:06:20.190Z,98561.69
2022-08-11T10:10:37.861Z,98552.84
2022-08-11T10:15:06.729Z,98551.38
2022-08-11T10:19:10.246Z,98537.50
2022-08-11T10:23:32.123Z,98570.13
2022-08-11T10:28:17.112Z,98544.97
2022-08-11T10:32:16.586Z,98556.72
2022-08-11T10:36:20.382Z,98523.28
2022-08-11T10:40:23.824Z,98550.47
2022-08-11T10:44:26.888Z,98539.44
2022-08-11T10:48:31.757Z,98528.47
2022-08-11T10:52:54.728Z,98530.47
2022-08-11T10:57:16.229Z,98509.19
2022-08-11T11:01:22.624Z,98517.59
2022-08-11T11:05:30.436Z,98504.09
2022-08-11T11:09:40.797Z,98502.34
2022-08-11T11:14:06.225Z,98493.09
2022-08-11T11:18:19.528Z,98486.81
2022-08-11T11:22:38.409Z,98484.00
2022-08-11T11:27:02.977Z,98485.38
2022-08-11T11:31:22.330Z,98484.63
2022-08-11T11:35:31.108Z,98479.41
2022-08-11T11:39:35.132Z,98476.56
2022-08-11T11:43:37.457Z,98464.91
2022-08-11T11:47:40.222Z,98462.72
2022-08-11T11:51:43.563Z,98458.53
2022-08-11T11:55:47.781Z,98455.41
2022-08-11T12:00:10.294Z,98452.22
2022-08-11T12:04:15.284Z,98460.63
2022-08-11T12:08:17.867Z,98454.75
2022-08-11T12:12:39.639Z,98437.53
2022-08-11T12:16:44.674Z,98426.59
2022-08-11T12:20:47.470Z,98410.94
2022-08-11T12:25:21.808Z,98422.91
2022-08-11T12:29:27.225Z,98429.16
2022-08-11T12:33:29.343Z,98419.50
2022-08-11T12:37:44.674Z,98412.28
2022-08-11T12:42:06.131Z,98402.38
2022-08-11T12:46:16.833Z,98407.94
2022-08-11T12:50:37.702Z,98408.63
2022-08-11T12:55:13.814Z,98397.81
2022-08-11T12:59:35.043Z,98387.75
2022-08-11T13:03:57.914Z,98377.78
2022-08-11T13:08:04.099Z,98387.72
2022-08-11T13:12:25.389Z,98377.59
2022-08-11T13:16:57.145Z,98386.19
2022-08-11T13:21:00.121Z,98369.84
2022-08-11T13:25:04.428Z,98364.25
2022-08-11T13:29:06.571Z,98358.34
2022-08-11T13:33:10.189Z,98350.25
2022-08-11T13:37:14.485Z,98349.22
2022-08-11T13:41:36.815Z,98351.09
2022-08-11T13:45:39.504Z,98344.13
2022-08-11T13:49:44.189Z,98336.66
2022-08-11T13:53:46.387Z,98352.53
2022-08-11T13:58:19.331Z,98336.00
2022-08-11T14:02:29.511Z,98326.22
2022-08-11T14:06:34.886Z,98332.97
2022-08-11T14:10:39.041Z,98316.06
2022-08-11T14:14:43.474Z,98329.88
2022-08-11T14:18:48.418Z,98313.66
2022-08-11T14:22:52.397Z,98309.97
2022-08-11T14:26:55.421Z,98293.75
2022-08-11T14:31:01.505Z,98294.13
2022-08-11T14:35:04.921Z,98297.41
2022-08-11T14:39:12.555Z,98306.91
2022-08-11T14:44:14.110Z,98293.88
2022-08-11T14:48:01.247Z,98294.34
2022-08-11T14:52:31.772Z,98280.72
2022-08-11T14:56:37.168Z,98272.41
2022-08-11T15:00:41.644Z,98286.13
2022-08-11T15:04:43.821Z,98274.09
2022-08-11T15:08:55.099Z,98282.53
2022-08-11T15:12:57.708Z,98274.38
2022-08-11T15:17:08.915Z,98277.13
2022-08-11T15:21:29.808Z,98262.28
2022-08-11T15:25:34.853Z,98253.13
2022-08-11T15:29:57.892Z,98251.78
2022-08-11T15:34:22.545Z,98235.44
2022-08-11T15:38:26.005Z,98229.00
2022-08-11T15:42:48.820Z,98224.28
2022-08-11T15:46:55.445Z,98231.63
2022-08-11T15:51:00.477Z,98235.38
2022-08-11T15:55:08.891Z,98232.38
2022-08-11T15:59:42.967Z,98220.19
2022-08-11T16:04:12.663Z,98226.44
2022-08-11T16:08:17.646Z,98219.59
2022-08-11T16:12:39.325Z,98215.28
2022-08-11T16:16:42.832Z,98198.84
2022-08-11T16:20:46.724Z,98208.97
2022-08-11T16:27:01.926Z,98207.16
2022-08-11T16:29:14.260Z,98202.66
2022-08-11T16:33:22.667Z,98209.09
2022-08-11T16:38:00.368Z,98207.63
2022-08-11T16:43:05.331Z,98195.97
2022-08-11T16:47:01.721Z,98200.00
2022-08-11T16:51:07.983Z,98192.25
2022-08-11T16:55:10.299Z,98193.84
2022-08-11T16:59:31.801Z,98198.97
2022-08-11T17:03:55.952Z,98199.31
2022-08-11T17:08:21.073Z,98197.44
2022-08-11T17:12:48.142Z,98199.66
2022-08-11T17:16:51.245Z,98189.41
2022-08-11T17:20:53.418Z,98186.03
2022-08-11T17:24:56.656Z,98182.66
2022-08-11T17:29:00.903Z,98182.47
2022-08-11T17:33:21.471Z,98177.59
2022-08-11T17:37:24.859Z,98179.81
2022-08-11T17:41:45.566Z,98189.63
2022-08-11T17:46:08.411Z,98189.81
2022-08-11T17:50:17.664Z,98187.97
2022-08-11T17:54:41.806Z,98186.66
2022-08-11T17:59:04.153Z,98195.22
2022-08-11T18:03:25.779Z,98191.19
2022-08-11T18:07:46.825Z,98200.63
2022-08-11T18:12:11.810Z,98194.88
2022-08-11T18:16:33.708Z,98205.94
2022-08-11T18:20:55.490Z,98202.53
2022-08-11T18:25:22.493Z,98213.63
2022-08-11T18:29:43.470Z,98216.25
2022-08-11T18:34:11.500Z,98216.16
2022-08-11T18:38:34.793Z,98216.75
2022-08-11T18:43:00.320Z,98222.22
2022-08-11T18:47:27.432Z,98217.56
2022-08-11T18:51:51.784Z,98225.66
2022-08-11T18:56:12.677Z,98224.84
2022-08-11T19:00:33.664Z,98239.28
2022-08-11T19:04:55.470Z,98226.41
2022-08-11T19:09:18.451Z,98228.31
2022-08-11T19:13:43.561Z,98234.41
2022-08-11T19:18:07.058Z,98234.94
2022-08-11T19:22:29.307Z,98245.38
2022-08-11T19:26:52.509Z,98252.06
2022-08-11T19:31:14.885Z,98249.13
2022-08-11T19:35:36.357Z,98259.63
2022-08-11T19:39:59.509Z,98258.50
2022-08-11T19:44:21.185Z,98257.31
2022-08-11T19:48:44.764Z,98262.84
2022-08-11T19:53:17.531Z,98264.44
2022-08-11T19:57:40.653Z,98268.81
2022-08-11T20:02:13.593Z,98261.63
2022-08-11T20:06:37.310Z,98267.72
2022-08-11T20:10:59.313Z,98281.22
2022-08-11T20:15:21.837Z,98280.91
2022-08-11T20:19:56.495Z,98282.56
2022-08-11T20:24:20.223Z,98285.88
2022-08-11T20:28:40.791Z,98280.47
2022-08-11T20:33:03.193Z,98288.50
2022-08-11T20:37:24.950Z,98283.44
2022-08-11T20:41:58.950Z,98286.41
2022-08-11T20:46:22.477Z,98284.13
2022-08-11T20:50:45.674Z,98285.00
2022-08-11T20:55:10.877Z,98290.78
2022-08-11T20:59:49.443Z,98288.09
2022-08-11T21:04:17.615Z,98295.31
2022-08-11T21:08:45.201Z,98286.75
2022-08-11T21:13:24.301Z,98300.84
2022-08-11T21:18:00.712Z,98291.41
2022-08-11T21:22:31.724Z,98291.28
2022-08-11T21:26:59.201Z,98293.25
2022-08-11T21:31:24.650Z,98301.41
2022-08-11T21:35:45.633Z,98296.03
2022-08-11T21:40:09.960Z,98299.06
2022-08-11T21:44:32.997Z,98303.38
2022-08-11T21:48:57.750Z,98304.94
2022-08-11T21:53:19.406Z,98313.13
2022-08-11T21:57:47.653Z,98310.31
2022-08-11T22:02:12.767Z,98308.22
2022-08-11T22:06:35.657Z,98315.44
2022-08-11T22:10:56.918Z,98312.13
2022-08-11T22:15:17.722Z,98323.22
2022-08-11T22:19:40.381Z,98316.69
2022-08-11T22:24:03.645Z,98311.63
2022-08-11T22:28:29.012Z,98318.66
2022-08-11T22:32:50.822Z,98322.06
2022-08-11T22:37:27.023Z,98325.44
2022-08-11T22:41:48.319Z,98321.47
2022-08-11T22:46:09.084Z,98318.38
2022-08-11T22:50:32.473Z,98323.19
2022-08-11T22:54:53.876Z,98331.94
2022-08-11T22:59:15.612Z,98327.72
2022-08-11T23:03:38.612Z,98322.09
2022-08-11T23:07:59.954Z,98331.72
2022-08-11T23:12:21.604Z,98325.75
2022-08-11T23:16:43.010Z,98333.31
2022-08-11T23:21:04.433Z,98330.59
2022-08-11T23:25:25.772Z,98332.72
2022-08-11T23:29:48.046Z,98329.19
2022-08-11T23:34:37.028Z,98323.25
2022-08-11T23:38:55.701Z,98319.53
2022-08-11T23:43:16.704Z,98309.78
2022-08-11T23:47:50.327Z,98313.47
2022-08-11T23:52:12.222Z,98303.72
2022-08-11T23:56:33.713Z,98306.13
